Disclaimer

Please do not use the information listed here in-flight or in-navigation, as they are not provided to us by the airports but are provided by volunteers, so they might be outdated.

Search


Regions


Airport information page

Radio informations:
Tower (TWR) - 121.2 MHz
Approach (APP) - 121.2 MHz

Airport informations:
Latitude: 06° 13' 19.29" S
Longitude: 039° 13' 29.59" E
Elevation: 54 feet - 16 meters
Operating hours: N/A
Operating agency: Civil government, landing fees and diplomatic clearance may be required
Timezone: UTC+3
Fuel: N/A

Runway information:
18/36 - 8077 x 148 feet< - >2462 x 45 meters

Recent METARs:
HTZA 130200Z 00000KT 9999 SCT016 FEW018CB 26/25 Q1013 NOSIG
HTZA 130200Z 00000KT 9999 SCT016 FEW018CB 26/25 Q1013 NOSIG
HTZA 130300Z 03005KT 9999 SCT016 FEW018CB 26/25 Q1013 NOSIG

Airport on the map: